createdAt,value
2023-03-29T00:01:54.605Z,-4.85
2023-03-29T00:04:27.822Z,-4.86
2023-03-29T00:06:57.227Z,-4.91
2023-03-29T00:09:26.943Z,-4.99
2023-03-29T00:11:55.932Z,-5.11
2023-03-29T00:14:30.787Z,-5.17
2023-03-29T00:17:00.383Z,-5.20
2023-03-29T00:19:32.239Z,-5.27
2023-03-29T00:22:02.976Z,-5.30
2023-03-29T00:24:32.282Z,-5.27
2023-03-29T00:27:01.684Z,-5.26
2023-03-29T00:29:30.748Z,-5.30
2023-03-29T00:31:59.688Z,-5.36
2023-03-29T00:34:31.951Z,-5.45
2023-03-29T00:37:00.951Z,-5.49
2023-03-29T00:39:30.970Z,-5.52
2023-03-29T00:41:59.873Z,-5.57
2023-03-29T00:44:59.869Z,-5.67
2023-03-29T00:47:45.003Z,-5.63
2023-03-29T00:50:18.872Z,-5.61
2023-03-29T00:53:07.351Z,-5.54
2023-03-29T00:55:43.003Z,-5.42
2023-03-29T00:58:16.034Z,-5.38
2023-03-29T01:00:52.302Z,-5.28
2023-03-29T01:03:28.193Z,-5.18
2023-03-29T01:06:02.560Z,-5.22
2023-03-29T01:08:47.749Z,-5.24
2023-03-29T01:11:41.135Z,-5.36
2023-03-29T01:14:28.808Z,-5.56
2023-03-29T01:16:58.028Z,-5.62
2023-03-29T01:19:33.099Z,-5.68
2023-03-29T01:22:26.186Z,-5.72
2023-03-29T01:25:04.294Z,-5.72
2023-03-29T01:27:56.114Z,-5.82
2023-03-29T01:30:37.699Z,-5.84
2023-03-29T01:33:13.146Z,-5.84
2023-03-29T01:35:46.907Z,-5.88
2023-03-29T01:38:32.425Z,-5.90
2023-03-29T01:41:03.904Z,-5.93
2023-03-29T01:43:57.003Z,-5.95
2023-03-29T01:46:36.522Z,-5.97
2023-03-29T01:49:22.543Z,-5.97
2023-03-29T01:52:03.924Z,-5.86
2023-03-29T01:54:41.825Z,-5.72
2023-03-29T01:57:14.553Z,-5.61
2023-03-29T01:59:45.995Z,-5.58
2023-03-29T02:02:18.848Z,-5.58
2023-03-29T02:04:53.833Z,-5.65
2023-03-29T02:07:26.867Z,-5.75
2023-03-29T02:09:57.530Z,-5.77
2023-03-29T02:12:27.220Z,-5.82
2023-03-29T02:14:58.820Z,-5.88
2023-03-29T02:17:28.579Z,-5.97
2023-03-29T02:20:10.309Z,-5.94
2023-03-29T02:22:47.200Z,-5.98
2023-03-29T02:25:17.628Z,-6.02
2023-03-29T02:27:46.685Z,-6.08
2023-03-29T02:30:19.354Z,-6.18
2023-03-29T02:33:05.984Z,-6.28
2023-03-29T02:35:41.038Z,-6.29
2023-03-29T02:38:14.817Z,-6.18
2023-03-29T02:40:47.004Z,-6.11
2023-03-29T02:43:17.203Z,-6.06
2023-03-29T02:45:47.434Z,-5.97
2023-03-29T02:48:20.823Z,-5.86
2023-03-29T02:50:54.121Z,-5.74
2023-03-29T02:53:29.235Z,-5.62
2023-03-29T02:56:02.395Z,-5.48
2023-03-29T02:58:31.957Z,-5.36
2023-03-29T03:01:02.532Z,-5.38
2023-03-29T03:03:32.092Z,-5.48
2023-03-29T03:06:01.859Z,-5.56
2023-03-29T03:08:31.225Z,-5.51
2023-03-29T03:11:00.458Z,-5.53
2023-03-29T03:13:29.629Z,-5.56
2023-03-29T03:15:58.630Z,-5.56
2023-03-29T03:18:27.932Z,-5.59
2023-03-29T03:20:59.601Z,-5.63
2023-03-29T03:23:28.799Z,-5.66
2023-03-29T03:25:59.284Z,-5.71
2023-03-29T03:28:28.922Z,-5.70
2023-03-29T03:30:58.228Z,-5.75
2023-03-29T03:33:28.307Z,-5.82
2023-03-29T03:36:02.930Z,-5.83
2023-03-29T03:38:33.367Z,-5.80
2023-03-29T03:41:02.748Z,-5.78
2023-03-29T03:43:31.991Z,-5.81
2023-03-29T03:46:01.682Z,-5.85
2023-03-29T03:48:30.833Z,-5.91
2023-03-29T03:50:59.936Z,-5.95
2023-03-29T03:53:29.029Z,-5.96
2023-03-29T03:55:58.229Z,-5.85
2023-03-29T03:58:27.232Z,-5.70
2023-03-29T04:00:56.121Z,-5.68
2023-03-29T04:03:25.137Z,-5.67
2023-03-29T04:05:54.150Z,-5.74
2023-03-29T04:08:23.066Z,-5.71
2023-03-29T04:10:56.888Z,-5.66
2023-03-29T04:13:27.304Z,-5.62
2023-03-29T04:15:58.237Z,-5.61
2023-03-29T04:18:29.210Z,-5.62
2023-03-29T04:20:58.454Z,-5.70
2023-03-29T04:23:27.390Z,-5.77
2023-03-29T04:25:56.875Z,-5.79
2023-03-29T04:28:25.851Z,-5.80
2023-03-29T04:30:54.847Z,-5.80
2023-03-29T04:33:23.777Z,-5.78
2023-03-29T04:35:52.887Z,-5.78
2023-03-29T04:38:23.425Z,-5.77
2023-03-29T04:40:55.081Z,-5.75
2023-03-29T04:43:24.086Z,-5.66
2023-03-29T04:45:53.064Z,-5.63
2023-03-29T04:48:22.706Z,-5.65
2023-03-29T04:50:52.377Z,-5.61
2023-03-29T04:53:22.360Z,-5.53
2023-03-29T04:55:51.461Z,-5.42
2023-03-29T04:58:22.535Z,-5.26
2023-03-29T05:00:56.007Z,-5.16
2023-03-29T05:03:25.650Z,-5.09
2023-03-29T05:05:54.744Z,-5.03
2023-03-29T05:08:24.330Z,-4.92
2023-03-29T05:10:53.231Z,-4.84
2023-03-29T05:13:22.230Z,-4.74
2023-03-29T05:15:52.791Z,-4.59
2023-03-29T05:18:22.370Z,-4.49
2023-03-29T05:20:53.262Z,-4.44
2023-03-29T05:23:23.841Z,-4.34
2023-03-29T05:25:55.609Z,-4.18
2023-03-29T05:28:24.746Z,-4.02
2023-03-29T05:31:02.422Z,-3.90
2023-03-29T05:33:31.761Z,-3.73
2023-03-29T05:36:03.702Z,-3.59
2023-03-29T05:38:35.934Z,-3.42
2023-03-29T05:41:06.405Z,-3.25
2023-03-29T05:43:35.459Z,-3.07
2023-03-29T05:46:05.906Z,-2.92
2023-03-29T05:48:36.526Z,-2.75
2023-03-29T05:51:05.939Z,-2.56
2023-03-29T05:53:35.443Z,-2.37
2023-03-29T05:56:04.793Z,-2.21
2023-03-29T05:58:33.843Z,-2.01
2023-03-29T06:01:04.745Z,-1.87
2023-03-29T06:03:34.097Z,-1.71
2023-03-29T06:06:04.429Z,-1.58
2023-03-29T06:08:35.256Z,-1.47
2023-03-29T06:11:06.708Z,-1.42
2023-03-29T06:13:37.238Z,-1.41
2023-03-29T06:16:06.895Z,-1.39
2023-03-29T06:18:36.835Z,-1.40
2023-03-29T06:21:08.076Z,-1.38
2023-03-29T06:23:37.189Z,-1.29
2023-03-29T06:26:06.838Z,-1.18
2023-03-29T06:28:35.833Z,-1.06
2023-03-29T06:31:05.696Z,-0.95
2023-03-29T06:33:37.306Z,-0.88
2023-03-29T06:36:06.981Z,-0.71
2023-03-29T06:38:36.444Z,-0.55
2023-03-29T06:41:07.931Z,-0.43
2023-03-29T06:43:37.916Z,-0.36
2023-03-29T06:46:12.430Z,-0.26
2023-03-29T06:48:41.830Z,-0.20
2023-03-29T06:51:10.836Z,-0.14
2023-03-29T06:53:39.827Z,-0.05
2023-03-29T06:56:09.880Z,0.01
2023-03-29T06:58:39.466Z,0.02
2023-03-29T07:01:08.470Z,0.01
2023-03-29T07:03:39.370Z,0.07
2023-03-29T07:06:12.501Z,0.20
2023-03-29T07:08:45.282Z,0.43
2023-03-29T07:11:15.293Z,0.73
2023-03-29T07:13:44.928Z,0.98
2023-03-29T07:16:14.123Z,1.07
2023-03-29T07:18:44.348Z,1.17
2023-03-29T07:21:13.642Z,1.41
2023-03-29T07:23:42.936Z,1.67
2023-03-29T07:26:12.651Z,1.89
2023-03-29T07:28:42.605Z,2.20
2023-03-29T07:31:12.284Z,2.50
2023-03-29T07:33:41.798Z,2.83
2023-03-29T07:36:12.183Z,3.11
2023-03-29T07:38:41.934Z,3.28
2023-03-29T07:41:10.921Z,3.46
2023-03-29T07:43:39.937Z,3.47
2023-03-29T07:46:10.276Z,3.76
2023-03-29T07:48:39.468Z,3.93
2023-03-29T07:51:08.690Z,4.28
2023-03-29T07:53:38.675Z,4.63
2023-03-29T07:56:09.036Z,4.99
2023-03-29T07:58:38.052Z,5.30
2023-03-29T08:01:08.547Z,5.60
2023-03-29T08:03:37.609Z,5.71
2023-03-29T08:06:07.018Z,5.96
2023-03-29T08:08:36.830Z,6.27
2023-03-29T08:11:08.972Z,6.26
2023-03-29T08:13:37.927Z,6.06
2023-03-29T08:16:07.694Z,5.92
2023-03-29T08:18:36.611Z,5.94
2023-03-29T08:21:05.870Z,6.24
2023-03-29T08:23:35.763Z,6.46
2023-03-29T08:26:04.943Z,6.59
2023-03-29T08:28:33.826Z,6.62
2023-03-29T08:31:03.101Z,6.66
2023-03-29T08:33:32.594Z,6.54
2023-03-29T08:36:02.098Z,6.46
2023-03-29T08:38:31.184Z,6.46
2023-03-29T08:41:00.959Z,6.53
2023-03-29T08:43:36.121Z,6.83
2023-03-29T08:46:40.658Z,7.14
2023-03-29T08:49:12.519Z,7.34
2023-03-29T08:51:47.884Z,7.31
2023-03-29T08:54:28.262Z,7.34
2023-03-29T08:57:08.572Z,7.57
2023-03-29T08:59:39.618Z,7.58
2023-03-29T09:02:17.886Z,7.54
2023-03-29T09:04:48.701Z,7.56
2023-03-29T09:07:17.871Z,7.70
2023-03-29T09:09:46.894Z,7.69
2023-03-29T09:12:48.911Z,7.74
2023-03-29T09:15:42.566Z,7.77
2023-03-29T09:18:22.088Z,7.86
2023-03-29T09:20:59.141Z,7.96
2023-03-29T09:23:58.287Z,8.07
2023-03-29T09:26:59.728Z,8.07
2023-03-29T09:29:37.751Z,7.97
2023-03-29T09:32:19.705Z,8.04
2023-03-29T09:35:14.437Z,8.16
2023-03-29T09:37:43.395Z,8.44
2023-03-29T09:40:17.807Z,8.47
2023-03-29T09:42:51.151Z,8.52
2023-03-29T09:45:20.321Z,8.73
2023-03-29T09:47:58.201Z,8.87
2023-03-29T09:50:35.406Z,9.01
2023-03-29T09:53:05.627Z,8.93
2023-03-29T09:55:37.343Z,8.73
2023-03-29T09:58:32.933Z,8.71
2023-03-29T10:01:08.919Z,8.84
2023-03-29T10:03:39.963Z,8.89
2023-03-29T10:06:12.674Z,9.02
2023-03-29T10:08:51.838Z,9.14
2023-03-29T10:11:29.006Z,8.93
2023-03-29T10:14:03.089Z,8.94
2023-03-29T10:16:42.534Z,8.85
2023-03-29T10:19:23.365Z,8.85
2023-03-29T10:21:54.077Z,8.92
2023-03-29T10:24:25.746Z,9.02
2023-03-29T10:27:00.244Z,9.06
2023-03-29T10:29:42.721Z,8.99
2023-03-29T10:32:17.540Z,8.88
2023-03-29T10:34:47.931Z,8.97
2023-03-29T10:37:19.666Z,8.89
2023-03-29T10:39:49.132Z,8.98
2023-03-29T10:42:23.792Z,9.13
2023-03-29T10:44:58.442Z,9.34
2023-03-29T10:47:31.743Z,9.50
2023-03-29T10:50:01.628Z,9.43
2023-03-29T10:52:30.609Z,9.29
2023-03-29T10:55:00.556Z,9.32
2023-03-29T10:57:58.827Z,9.46
2023-03-29T11:00:56.956Z,9.44
2023-03-29T11:03:33.930Z,9.57
2023-03-29T11:06:21.156Z,9.70
2023-03-29T11:08:57.610Z,9.59
2023-03-29T11:11:47.981Z,9.52
2023-03-29T11:14:41.453Z,9.56
2023-03-29T11:17:19.492Z,9.47
2023-03-29T11:19:56.650Z,9.47
2023-03-29T11:22:36.584Z,9.62
2023-03-29T11:25:30.188Z,9.85
2023-03-29T11:28:05.266Z,10.27
2023-03-29T11:30:48.451Z,10.38
2023-03-29T11:33:34.633Z,10.52
2023-03-29T11:36:33.841Z,10.75
2023-03-29T11:39:22.313Z,10.88
2023-03-29T11:41:56.431Z,10.99
2023-03-29T11:44:30.529Z,10.78
2023-03-29T11:47:05.173Z,10.49
2023-03-29T11:49:41.852Z,10.58
2023-03-29T11:52:24.559Z,10.56
2023-03-29T11:54:56.172Z,10.64
2023-03-29T11:57:39.146Z,10.91
2023-03-29T12:00:15.795Z,11.27
2023-03-29T12:02:48.288Z,11.90
2023-03-29T12:05:27.510Z,12.25
2023-03-29T12:08:00.086Z,12.62
2023-03-29T12:11:01.539Z,12.98
2023-03-29T12:13:36.905Z,13.06
2023-03-29T12:16:23.958Z,13.14
2023-03-29T12:18:58.283Z,13.33
2023-03-29T12:21:30.054Z,13.59
2023-03-29T12:23:59.037Z,13.62
2023-03-29T12:26:46.036Z,13.47
2023-03-29T12:29:33.791Z,13.43
2023-03-29T12:32:15.089Z,12.97
2023-03-29T12:34:53.102Z,12.67
2023-03-29T12:37:36.293Z,12.66
2023-03-29T12:40:17.744Z,12.70
2023-03-29T12:43:07.046Z,12.72
2023-03-29T12:45:43.049Z,12.54
2023-03-29T12:48:19.051Z,12.09
2023-03-29T12:51:01.224Z,12.00
2023-03-29T12:53:43.491Z,12.02
2023-03-29T12:56:16.357Z,11.93
2023-03-29T12:59:17.745Z,11.76
2023-03-29T13:02:00.294Z,11.63
2023-03-29T13:05:25.077Z,11.42
2023-03-29T13:07:56.092Z,11.10
2023-03-29T13:10:37.891Z,10.93
2023-03-29T13:13:30.913Z,10.80
2023-03-29T13:16:18.819Z,10.81
2023-03-29T13:19:08.268Z,11.10
2023-03-29T13:21:46.556Z,11.24
2023-03-29T13:25:04.422Z,11.14
2023-03-29T13:27:48.835Z,11.65
2023-03-29T13:30:46.190Z,11.99
2023-03-29T13:33:38.266Z,12.18
2023-03-29T13:36:37.585Z,12.39
2023-03-29T13:39:07.612Z,12.60
2023-03-29T13:41:39.098Z,12.70
2023-03-29T13:44:38.913Z,12.61
2023-03-29T13:47:19.687Z,12.42
2023-03-29T13:49:54.791Z,12.14
2023-03-29T13:52:51.403Z,12.14
2023-03-29T13:55:27.055Z,11.74
2023-03-29T13:58:02.779Z,11.79
2023-03-29T14:00:40.180Z,11.81
2023-03-29T14:03:15.652Z,11.81
2023-03-29T14:05:50.816Z,11.51
2023-03-29T14:08:39.455Z,11.30
2023-03-29T14:11:19.916Z,11.08
2023-03-29T14:13:52.835Z,10.95
2023-03-29T14:16:22.249Z,10.91
2023-03-29T14:18:52.367Z,10.88
2023-03-29T14:21:21.750Z,10.82
2023-03-29T14:23:55.859Z,10.81
2023-03-29T14:26:30.682Z,10.80
2023-03-29T14:29:01.468Z,10.77
2023-03-29T14:31:33.554Z,10.85
2023-03-29T14:34:06.812Z,11.11
2023-03-29T14:36:36.495Z,11.19
2023-03-29T14:39:23.840Z,11.23
2023-03-29T14:41:59.675Z,11.14
2023-03-29T14:44:33.233Z,11.03
2023-03-29T14:47:03.414Z,10.99
2023-03-29T14:49:32.747Z,10.94
2023-03-29T14:52:02.351Z,10.82
2023-03-29T14:54:34.867Z,10.72
2023-03-29T14:57:07.403Z,10.60
2023-03-29T14:59:42.931Z,10.56
2023-03-29T15:02:48.590Z,10.54
2023-03-29T15:06:04.215Z,10.54
2023-03-29T15:08:38.578Z,10.42
2023-03-29T15:11:18.929Z,10.38
2023-03-29T15:13:49.305Z,10.34
2023-03-29T15:16:22.799Z,10.23
2023-03-29T15:18:53.027Z,10.22
2023-03-29T15:21:23.008Z,10.27
2023-03-29T15:24:03.429Z,10.27
2023-03-29T15:26:35.324Z,10.31
2023-03-29T15:29:23.335Z,10.41
2023-03-29T15:31:57.411Z,10.56
2023-03-29T15:34:29.537Z,10.65
2023-03-29T15:36:59.207Z,10.70
2023-03-29T15:39:29.593Z,10.62
2023-03-29T15:41:58.786Z,10.61
2023-03-29T15:44:32.555Z,10.56
2023-03-29T15:47:01.657Z,10.36
2023-03-29T15:49:30.789Z,10.13
2023-03-29T15:51:59.723Z,10.01
2023-03-29T15:54:31.132Z,9.92
2023-03-29T15:57:07.362Z,9.85
2023-03-29T15:59:36.691Z,9.81
2023-03-29T16:02:06.389Z,9.80
2023-03-29T16:04:35.414Z,9.79
2023-03-29T16:07:10.962Z,9.74
2023-03-29T16:09:39.929Z,9.69
2023-03-29T16:12:10.334Z,9.61
2023-03-29T16:14:39.586Z,9.54
2023-03-29T16:17:08.454Z,9.48
2023-03-29T16:19:37.819Z,9.45
2023-03-29T16:22:07.592Z,9.39
2023-03-29T16:24:36.860Z,9.36
2023-03-29T16:27:05.922Z,9.31
2023-03-29T16:29:35.067Z,9.28
2023-03-29T16:32:06.620Z,9.23
2023-03-29T16:34:36.119Z,9.19
2023-03-29T16:37:05.166Z,9.16
2023-03-29T16:39:34.479Z,9.13
2023-03-29T16:42:04.007Z,9.10
2023-03-29T16:44:32.933Z,9.04
2023-03-29T16:47:02.180Z,8.99
2023-03-29T16:49:31.381Z,8.92
2023-03-29T16:52:00.256Z,8.85
2023-03-29T16:54:29.735Z,8.78
2023-03-29T16:56:59.040Z,8.75
2023-03-29T16:59:27.983Z,8.72
2023-03-29T17:01:57.025Z,8.69
2023-03-29T17:04:26.461Z,8.64
2023-03-29T17:06:55.834Z,8.61
2023-03-29T17:09:25.812Z,8.57
2023-03-29T17:11:56.140Z,8.54
2023-03-29T17:14:25.589Z,8.49
2023-03-29T17:16:54.542Z,8.43
2023-03-29T17:19:23.465Z,8.39
2023-03-29T17:21:52.398Z,8.34
2023-03-29T17:24:21.469Z,8.29
2023-03-29T17:26:50.633Z,8.23
2023-03-29T17:29:19.630Z,8.20
2023-03-29T17:31:48.678Z,8.14
2023-03-29T17:34:19.420Z,8.08
2023-03-29T17:36:49.110Z,8.03
2023-03-29T17:39:18.879Z,7.99
2023-03-29T17:41:48.210Z,7.98
2023-03-29T17:44:17.230Z,7.96
2023-03-29T17:46:46.791Z,7.91
2023-03-29T17:49:15.809Z,7.84
2023-03-29T17:51:44.808Z,7.75
2023-03-29T17:54:13.802Z,7.69
2023-03-29T17:56:42.817Z,7.61
2023-03-29T17:59:11.802Z,7.48
2023-03-29T18:01:40.932Z,7.43
2023-03-29T18:04:10.717Z,7.35
2023-03-29T18:06:39.817Z,7.26
2023-03-29T18:09:10.395Z,7.15
2023-03-29T18:11:39.526Z,7.00
2023-03-29T18:14:08.429Z,6.89
2023-03-29T18:16:37.473Z,6.83
2023-03-29T18:19:06.543Z,6.78
2023-03-29T18:21:35.563Z,6.75
2023-03-29T18:24:04.555Z,6.72
2023-03-29T18:26:33.572Z,6.63
2023-03-29T18:29:02.463Z,6.56
2023-03-29T18:31:31.418Z,6.51
2023-03-29T18:34:00.615Z,6.47
2023-03-29T18:36:30.477Z,6.48
2023-03-29T18:39:05.826Z,6.50
2023-03-29T18:41:37.304Z,6.52
2023-03-29T18:44:07.875Z,6.51
2023-03-29T18:46:37.311Z,6.51
2023-03-29T18:49:07.876Z,6.53
2023-03-29T18:51:36.832Z,6.56
2023-03-29T18:54:06.171Z,6.62
2023-03-29T18:56:36.007Z,6.67
2023-03-29T18:59:06.504Z,6.71
2023-03-29T19:01:35.973Z,6.76
2023-03-29T19:04:05.716Z,6.80
2023-03-29T19:06:34.753Z,6.83
2023-03-29T19:09:05.477Z,6.85
2023-03-29T19:11:36.137Z,6.86
2023-03-29T19:14:08.373Z,6.88
2023-03-29T19:16:37.357Z,6.89
2023-03-29T19:19:07.293Z,6.92
2023-03-29T19:21:36.940Z,6.92
2023-03-29T19:24:07.861Z,6.92
2023-03-29T19:26:37.441Z,6.93
2023-03-29T19:29:06.401Z,6.91
2023-03-29T19:31:37.924Z,6.89
2023-03-29T19:34:09.677Z,6.87
2023-03-29T19:36:38.775Z,6.84
2023-03-29T19:39:07.751Z,6.82
2023-03-29T19:41:36.738Z,6.79
2023-03-29T19:44:05.923Z,6.77
2023-03-29T19:46:34.929Z,6.76
2023-03-29T19:49:05.675Z,6.75
2023-03-29T19:51:34.774Z,6.73
2023-03-29T19:54:03.844Z,6.73
2023-03-29T19:56:33.457Z,6.72
2023-03-29T19:59:02.449Z,6.71
2023-03-29T20:01:32.444Z,6.71
2023-03-29T20:04:02.605Z,6.70
2023-03-29T20:06:31.693Z,6.70
2023-03-29T20:09:00.701Z,6.69
2023-03-29T20:11:29.693Z,6.68
2023-03-29T20:13:58.692Z,6.67
2023-03-29T20:16:27.810Z,6.66
2023-03-29T20:18:56.804Z,6.65
2023-03-29T20:21:25.714Z,6.64
2023-03-29T20:23:56.144Z,6.63
2023-03-29T20:26:25.630Z,6.61
2023-03-29T20:28:54.553Z,6.61
2023-03-29T20:31:23.864Z,6.61
2023-03-29T20:33:53.644Z,6.61
2023-03-29T20:36:23.476Z,6.61
2023-03-29T20:38:55.328Z,6.60
2023-03-29T20:41:24.405Z,6.60
2023-03-29T20:43:59.034Z,6.59
2023-03-29T20:46:35.072Z,6.56
2023-03-29T20:49:07.434Z,6.55
2023-03-29T20:51:38.001Z,6.54
2023-03-29T20:54:10.032Z,6.53
2023-03-29T20:56:40.163Z,6.52
2023-03-29T20:59:12.250Z,6.50
2023-03-29T21:01:42.489Z,6.47
2023-03-29T21:04:11.536Z,6.45
2023-03-29T21:06:40.514Z,6.45
2023-03-29T21:09:09.478Z,6.43
2023-03-29T21:11:38.680Z,6.41
2023-03-29T21:14:09.554Z,6.39
2023-03-29T21:16:41.912Z,6.38
2023-03-29T21:19:11.004Z,6.35
2023-03-29T21:21:41.647Z,6.32
2023-03-29T21:24:13.547Z,6.30
2023-03-29T21:26:42.594Z,6.26
2023-03-29T21:29:11.589Z,6.25
2023-03-29T21:31:40.952Z,6.28
2023-03-29T21:34:10.203Z,6.28
2023-03-29T21:36:39.910Z,6.31
2023-03-29T21:39:08.804Z,6.38
2023-03-29T21:41:37.870Z,6.43
2023-03-29T21:44:07.012Z,6.47
2023-03-29T21:46:36.155Z,6.48
2023-03-29T21:49:05.180Z,6.48
2023-03-29T21:51:34.197Z,6.45
2023-03-29T21:54:03.402Z,6.43
2023-03-29T21:56:32.335Z,6.41
2023-03-29T21:59:01.401Z,6.41
2023-03-29T22:01:31.063Z,6.38
2023-03-29T22:04:00.020Z,6.36
2023-03-29T22:06:29.005Z,6.32
2023-03-29T22:09:00.885Z,6.27
2023-03-29T22:11:31.197Z,6.19
2023-03-29T22:14:00.309Z,6.21
2023-03-29T22:16:31.497Z,6.17
2023-03-29T22:19:00.539Z,6.16
2023-03-29T22:21:32.606Z,6.13
2023-03-29T22:24:01.726Z,6.09
2023-03-29T22:26:32.654Z,6.08
2023-03-29T22:29:01.728Z,6.10
2023-03-29T22:31:32.020Z,6.15
2023-03-29T22:34:02.871Z,6.22
2023-03-29T22:36:32.011Z,6.27
2023-03-29T22:39:00.990Z,6.29
2023-03-29T22:41:30.109Z,6.29
2023-03-29T22:44:02.893Z,6.28
2023-03-29T22:46:31.992Z,6.26
2023-03-29T22:49:00.991Z,6.25
2023-03-29T22:51:30.099Z,6.18
2023-03-29T22:53:59.495Z,6.15
2023-03-29T22:56:28.703Z,6.10
2023-03-29T22:58:57.564Z,6.09
2023-03-29T23:01:26.757Z,6.05
2023-03-29T23:03:55.799Z,6.03
2023-03-29T23:06:24.770Z,6.00
2023-03-29T23:08:53.727Z,5.99
2023-03-29T23:11:22.939Z,6.03
2023-03-29T23:13:52.629Z,6.11
2023-03-29T23:16:21.820Z,6.19
2023-03-29T23:18:50.875Z,6.23
2023-03-29T23:21:19.769Z,6.29
2023-03-29T23:23:49.514Z,6.28
2023-03-29T23:26:18.645Z,6.29
2023-03-29T23:28:47.629Z,6.29
2023-03-29T23:31:18.718Z,6.29
2023-03-29T23:33:47.755Z,6.29
2023-03-29T23:36:18.363Z,6.23
2023-03-29T23:38:47.989Z,6.18
2023-03-29T23:41:17.876Z,6.14
2023-03-29T23:43:50.222Z,6.10
2023-03-29T23:46:29.167Z,6.09
2023-03-29T23:49:00.059Z,6.08
2023-03-29T23:51:30.745Z,6.07
2023-03-29T23:53:59.611Z,6.11
2023-03-29T23:56:29.128Z,6.12
2023-03-29T23:58:58.077Z,6.14
